createdAt,value
2022-11-12T00:00:06.707Z,64.22
2022-11-12T00:02:33.136Z,63.60
2022-11-12T00:04:59.567Z,64.49
2022-11-12T00:07:25.957Z,64.20
2022-11-12T00:09:52.333Z,65.70
2022-11-12T00:12:18.926Z,64.11
2022-11-12T00:14:46.650Z,64.95
2022-11-12T00:17:13.072Z,64.81
2022-11-12T00:19:39.503Z,64.28
2022-11-12T00:22:05.905Z,64.96
2022-11-12T00:24:32.297Z,64.97
2022-11-12T00:26:58.759Z,65.27
2022-11-12T00:29:25.175Z,65.27
2022-11-12T00:31:52.898Z,65.77
2022-11-12T00:34:19.336Z,65.19
2022-11-12T00:36:45.749Z,65.24
2022-11-12T00:39:12.180Z,65.07
2022-11-12T00:41:38.597Z,65.37
2022-11-12T00:44:05.344Z,64.25
2022-11-12T00:46:31.735Z,64.96
2022-11-12T00:48:59.502Z,65.73
2022-11-12T00:51:25.965Z,64.77
2022-11-12T00:53:52.375Z,65.29
2022-11-12T00:56:18.798Z,66.34
2022-11-12T00:58:45.202Z,65.58
2022-11-12T01:01:14.483Z,66.37
2022-11-12T01:03:41.848Z,65.84
2022-11-12T01:06:12.017Z,65.25
2022-11-12T01:08:38.925Z,64.99
2022-11-12T01:11:07.120Z,64.78
2022-11-12T01:13:33.578Z,63.64
2022-11-12T01:16:04.282Z,64.22
2022-11-12T01:18:30.861Z,64.83
2022-11-12T01:21:00.090Z,64.17
2022-11-12T01:23:27.924Z,65.55
2022-11-12T01:25:56.094Z,66.63
2022-11-12T01:28:22.564Z,66.59
2022-11-12T01:30:49.038Z,66.69
2022-11-12T01:33:15.502Z,66.42
2022-11-12T01:35:41.925Z,65.79
2022-11-12T01:38:08.314Z,66.58
2022-11-12T01:40:36.086Z,66.00
2022-11-12T01:43:02.493Z,66.08
2022-11-12T01:45:29.650Z,65.34
2022-11-12T01:47:56.516Z,64.17
2022-11-12T01:50:27.334Z,64.36
2022-11-12T01:52:57.605Z,63.97
2022-11-12T01:55:29.190Z,64.29
2022-11-12T01:58:04.199Z,63.84
2022-11-12T02:00:30.623Z,63.78
2022-11-12T02:02:59.807Z,63.85
2022-11-12T02:05:28.349Z,64.64
2022-11-12T02:07:56.502Z,64.28
2022-11-12T02:10:22.976Z,64.39
2022-11-12T02:12:51.485Z,64.85
2022-11-12T02:15:20.390Z,64.24
2022-11-12T02:17:46.926Z,64.22
2022-11-12T02:20:14.470Z,65.85
2022-11-12T02:22:42.251Z,65.61
2022-11-12T02:25:10.218Z,64.40
2022-11-12T02:27:36.676Z,64.67
2022-11-12T02:30:03.543Z,63.94
2022-11-12T02:32:30.163Z,65.09
2022-11-12T02:34:56.632Z,64.42
2022-11-12T02:37:23.076Z,64.59
2022-11-12T02:39:50.914Z,64.52
2022-11-12T02:42:17.373Z,64.32
2022-11-12T02:44:44.142Z,64.49
2022-11-12T02:47:10.577Z,65.19
2022-11-12T02:49:37.020Z,65.23
2022-11-12T02:52:03.630Z,65.43
2022-11-12T02:54:30.044Z,64.94
2022-11-12T02:56:57.786Z,65.82
2022-11-12T02:59:24.169Z,65.32
2022-11-12T03:01:50.704Z,65.78
2022-11-12T03:04:17.144Z,65.38
2022-11-12T03:06:43.628Z,65.12
2022-11-12T03:09:11.150Z,65.29
2022-11-12T03:11:37.734Z,65.96
2022-11-12T03:14:05.505Z,65.54
2022-11-12T03:16:31.883Z,65.91
2022-11-12T03:18:58.307Z,65.98
2022-11-12T03:21:24.718Z,66.33
2022-11-12T03:23:51.104Z,66.47
2022-11-12T03:26:17.555Z,66.13
2022-11-12T03:28:43.966Z,66.03
2022-11-12T03:31:11.859Z,65.43
2022-11-12T03:33:38.311Z,65.41
2022-11-12T03:36:05.269Z,65.44
2022-11-12T03:38:31.706Z,65.73
2022-11-12T03:40:58.122Z,66.25
2022-11-12T03:43:24.519Z,66.12
2022-11-12T03:45:50.946Z,66.32
2022-11-12T03:48:18.748Z,66.57
2022-11-12T03:50:45.182Z,66.74
2022-11-12T03:53:11.820Z,66.51
2022-11-12T03:55:38.244Z,67.46
2022-11-12T03:58:04.675Z,66.46
2022-11-12T04:00:31.316Z,66.74
2022-11-12T04:02:58.734Z,66.77
2022-11-12T04:05:26.899Z,67.15
2022-11-12T04:07:57.886Z,65.87
2022-11-12T04:10:24.422Z,67.49
2022-11-12T04:12:50.986Z,66.65
2022-11-12T04:15:17.833Z,65.92
2022-11-12T04:17:44.325Z,65.83
2022-11-12T04:20:10.854Z,67.20
2022-11-12T04:22:38.604Z,67.75
2022-11-12T04:25:05.751Z,66.71
2022-11-12T04:27:34.367Z,66.41
2022-11-12T04:30:00.891Z,66.12
2022-11-12T04:32:27.478Z,66.44
2022-11-12T04:34:54.453Z,65.83
2022-11-12T04:37:23.586Z,66.61
2022-11-12T04:39:52.302Z,67.35
2022-11-12T04:42:19.659Z,68.21
2022-11-12T04:44:46.071Z,67.13
2022-11-12T04:47:12.512Z,67.09
2022-11-12T04:49:38.903Z,68.08
2022-11-12T04:52:05.435Z,67.94
2022-11-12T04:54:32.128Z,68.00
2022-11-12T04:57:00.107Z,66.51
2022-11-12T04:59:26.513Z,67.37
2022-11-12T05:01:52.966Z,66.46
2022-11-12T05:04:19.606Z,67.03
2022-11-12T05:06:46.104Z,68.62
2022-11-12T05:09:12.646Z,68.05
2022-11-12T05:11:39.020Z,68.11
2022-11-12T05:14:06.775Z,67.76
2022-11-12T05:16:33.221Z,67.92
2022-11-12T05:18:59.803Z,67.87
2022-11-12T05:21:26.201Z,67.75
2022-11-12T05:23:52.750Z,67.87
2022-11-12T05:26:19.195Z,67.84
2022-11-12T05:28:45.641Z,67.39
2022-11-12T05:31:13.402Z,67.70
2022-11-12T05:33:39.789Z,68.03
2022-11-12T05:36:06.902Z,68.82
2022-11-12T05:38:33.305Z,68.23
2022-11-12T05:40:59.701Z,68.30
2022-11-12T05:43:26.251Z,67.82
2022-11-12T05:45:52.778Z,68.85
2022-11-12T05:48:24.373Z,69.20
2022-11-12T05:51:12.036Z,68.56
2022-11-12T05:53:37.868Z,68.03
2022-11-12T05:56:05.910Z,68.31
2022-11-12T05:58:33.098Z,68.46
2022-11-12T06:00:59.783Z,67.98
2022-11-12T06:03:28.480Z,67.77
2022-11-12T06:05:54.920Z,68.46
2022-11-12T06:08:21.566Z,67.36
2022-11-12T06:10:48.719Z,69.05
2022-11-12T06:13:15.179Z,69.53
2022-11-12T06:15:41.663Z,68.63
2022-11-12T06:18:08.700Z,68.15
2022-11-12T06:20:36.849Z,68.82
2022-11-12T06:23:03.450Z,68.23
2022-11-12T06:25:30.177Z,69.25
2022-11-12T06:27:56.682Z,68.71
2022-11-12T06:30:25.857Z,67.92
2022-11-12T06:32:52.416Z,68.38
2022-11-12T06:35:19.038Z,67.48
2022-11-12T06:37:48.340Z,67.63
2022-11-12T06:40:14.945Z,67.76
2022-11-12T06:42:41.504Z,67.35
2022-11-12T06:45:09.102Z,67.59
2022-11-12T06:47:35.559Z,67.72
2022-11-12T06:50:01.952Z,68.21
2022-11-12T06:52:28.382Z,68.47
2022-11-12T06:54:56.186Z,67.55
2022-11-12T06:57:22.620Z,67.73
2022-11-12T06:59:49.047Z,67.81
2022-11-12T07:02:15.466Z,67.83
2022-11-12T07:04:41.903Z,66.97
2022-11-12T07:07:10.836Z,67.50
2022-11-12T07:09:37.668Z,67.71
2022-11-12T07:12:06.076Z,67.74
2022-11-12T07:14:32.601Z,68.26
2022-11-12T07:16:59.016Z,66.70
2022-11-12T07:19:25.461Z,67.19
2022-11-12T07:21:52.254Z,66.67
2022-11-12T07:24:18.713Z,68.28
2022-11-12T07:26:49.014Z,67.48
2022-11-12T07:29:30.164Z,68.04
2022-11-12T07:32:03.436Z,69.29
2022-11-12T07:34:30.069Z,68.27
2022-11-12T07:36:56.450Z,67.16
2022-11-12T07:39:22.875Z,66.33
2022-11-12T07:41:49.318Z,66.55
2022-11-12T07:44:17.064Z,65.74
2022-11-12T07:46:43.552Z,66.49
2022-11-12T07:49:10.059Z,66.38
2022-11-12T07:51:36.467Z,68.17
2022-11-12T07:54:03.060Z,66.17
2022-11-12T07:56:30.675Z,65.67
2022-11-12T07:58:57.082Z,65.13
2022-11-12T08:01:29.652Z,65.00
2022-11-12T08:03:56.738Z,65.19
2022-11-12T08:06:23.570Z,65.17
2022-11-12T08:08:51.619Z,65.12
2022-11-12T08:11:18.120Z,64.67
2022-11-12T08:13:44.530Z,63.81
2022-11-12T08:16:11.031Z,64.70
2022-11-12T08:18:38.906Z,65.43
2022-11-12T08:21:06.705Z,64.83
2022-11-12T08:23:33.427Z,65.00
2022-11-12T08:26:00.342Z,63.59
2022-11-12T08:28:28.839Z,63.92
2022-11-12T08:30:56.027Z,64.21
2022-11-12T08:33:22.983Z,65.24
2022-11-12T08:35:50.865Z,63.24
2022-11-12T08:38:17.253Z,63.62
2022-11-12T08:40:43.710Z,63.68
2022-11-12T08:43:10.762Z,63.51
2022-11-12T08:45:39.069Z,65.28
2022-11-12T08:48:08.027Z,62.18
2022-11-12T08:50:35.668Z,61.63
2022-11-12T08:53:06.145Z,60.87
2022-11-12T08:55:33.654Z,60.89
2022-11-12T08:58:00.480Z,59.49
2022-11-12T09:00:27.434Z,59.33
2022-11-12T09:02:54.020Z,61.33
2022-11-12T09:05:21.000Z,59.82
2022-11-12T09:07:50.451Z,60.30
2022-11-12T09:10:18.762Z,59.55
2022-11-12T09:12:50.090Z,61.08
2022-11-12T09:18:05.884Z,59.53
2022-11-12T09:20:32.863Z,59.60
2022-11-12T09:23:00.618Z,60.07
2022-11-12T09:25:28.660Z,59.94
2022-11-12T09:27:55.182Z,59.42
2022-11-12T09:30:22.894Z,59.03
2022-11-12T09:32:49.494Z,59.33
2022-11-12T09:35:15.965Z,58.73
2022-11-12T09:37:42.485Z,57.77
2022-11-12T09:40:17.136Z,59.52
2022-11-12T09:42:47.661Z,59.26
2022-11-12T09:45:21.345Z,58.75
2022-11-12T09:47:52.269Z,59.51
2022-11-12T09:50:21.776Z,58.59
2022-11-12T09:52:51.856Z,57.73
2022-11-12T09:55:23.225Z,58.43
2022-11-12T09:57:51.124Z,57.33
2022-11-12T10:00:19.896Z,57.59
2022-11-12T10:02:53.564Z,58.14
2022-11-12T10:05:28.703Z,58.51
2022-11-12T10:08:05.601Z,57.35
2022-11-12T10:10:39.587Z,57.47
2022-11-12T10:13:24.053Z,58.09
2022-11-12T10:16:11.738Z,57.12
2022-11-12T10:18:50.824Z,57.55
2022-11-12T10:21:27.784Z,57.94
2022-11-12T10:23:54.444Z,57.76
2022-11-12T10:26:24.258Z,56.58
2022-11-12T10:29:00.992Z,58.70
2022-11-12T10:31:27.494Z,57.56
2022-11-12T10:34:09.674Z,57.50
2022-11-12T10:36:38.272Z,57.03
2022-11-12T10:39:04.786Z,56.67
2022-11-12T10:41:33.580Z,57.83
2022-11-12T10:44:03.060Z,56.83
2022-11-12T10:46:31.577Z,57.10
2022-11-12T10:49:00.779Z,58.37
2022-11-12T10:51:31.547Z,56.23
2022-11-12T10:53:58.492Z,55.60
2022-11-12T10:56:28.836Z,55.97
2022-11-12T10:59:14.522Z,55.41
2022-11-12T11:01:45.495Z,55.60
2022-11-12T11:04:27.399Z,54.51
2022-11-12T11:07:05.566Z,55.06
2022-11-12T11:09:33.370Z,54.33
2022-11-12T11:12:00.339Z,55.47
2022-11-12T11:14:33.815Z,55.64
2022-11-12T11:17:03.053Z,54.03
2022-11-12T11:19:35.047Z,55.48
2022-11-12T11:22:25.121Z,54.68
2022-11-12T11:25:06.058Z,54.32
2022-11-12T11:27:41.033Z,56.29
2022-11-12T11:30:11.983Z,54.97
2022-11-12T11:33:05.158Z,53.70
2022-11-12T11:35:46.165Z,53.31
2022-11-12T11:38:26.845Z,55.60
2022-11-12T11:41:06.274Z,54.94
2022-11-12T11:43:47.934Z,54.89
2022-11-12T11:46:26.710Z,54.51
2022-11-12T11:49:15.207Z,54.67
2022-11-12T11:51:51.698Z,53.42
2022-11-12T11:54:44.483Z,53.09
2022-11-12T11:57:15.168Z,52.72
2022-11-12T12:00:01.116Z,52.57
2022-11-12T12:02:52.604Z,53.29
2022-11-12T12:05:29.277Z,51.70
2022-11-12T12:08:02.203Z,52.07
2022-11-12T12:11:09.842Z,55.12
2022-11-12T12:13:41.954Z,54.04
2022-11-12T12:16:22.127Z,52.67
2022-11-12T12:18:54.860Z,53.37
2022-11-12T12:21:24.184Z,53.66
2022-11-12T12:23:55.106Z,54.49
2022-11-12T12:26:25.451Z,55.82
2022-11-12T12:28:56.599Z,55.59
2022-11-12T12:31:27.872Z,54.77
2022-11-12T12:33:58.497Z,55.78
2022-11-12T12:36:30.472Z,54.53
2022-11-12T12:39:04.827Z,55.01
2022-11-12T12:41:38.550Z,55.90
2022-11-12T12:44:05.728Z,57.41
2022-11-12T12:46:38.645Z,57.10
2022-11-12T12:49:11.199Z,56.99
2022-11-12T12:51:37.621Z,57.76
2022-11-12T12:54:04.378Z,56.75
2022-11-12T12:56:46.012Z,57.86
2022-11-12T12:59:23.665Z,59.14
2022-11-12T13:01:56.715Z,59.24
2022-11-12T13:04:53.522Z,59.05
2022-11-12T13:07:37.958Z,59.41
2022-11-12T13:10:37.879Z,59.33
2022-11-12T13:13:06.278Z,59.29
2022-11-12T13:15:43.635Z,59.55
2022-11-12T13:18:15.899Z,60.03
2022-11-12T13:21:08.704Z,59.34
2022-11-12T13:23:46.554Z,60.29
2022-11-12T13:26:48.468Z,60.06
2022-11-12T13:29:42.900Z,61.28
2022-11-12T13:32:28.858Z,59.96
2022-11-12T13:35:15.187Z,61.57
2022-11-12T13:37:45.566Z,62.57
2022-11-12T13:40:15.015Z,63.40
2022-11-12T13:42:41.840Z,63.06
2022-11-12T13:45:11.167Z,62.34
2022-11-12T13:47:38.132Z,63.50
2022-11-12T13:50:09.799Z,63.83
2022-11-12T13:52:36.799Z,62.23
2022-11-12T13:55:10.705Z,62.23
2022-11-12T13:57:39.095Z,62.55
2022-11-12T14:00:27.276Z,62.97
2022-11-12T14:02:57.011Z,63.21
2022-11-12T14:05:25.905Z,61.63
2022-11-12T14:08:07.871Z,63.39
2022-11-12T14:10:46.437Z,63.45
2022-11-12T14:13:28.754Z,63.90
2022-11-12T14:16:19.059Z,63.99
2022-11-12T14:19:06.649Z,60.83
2022-11-12T14:21:33.129Z,62.16
2022-11-12T14:24:02.804Z,63.31
2022-11-12T14:26:38.892Z,62.16
2022-11-12T14:29:05.683Z,61.32
2022-11-12T14:31:32.588Z,61.38
2022-11-12T14:34:19.715Z,61.11
2022-11-12T14:36:47.047Z,60.75
2022-11-12T14:39:13.825Z,60.42
2022-11-12T14:41:45.455Z,59.92
2022-11-12T14:44:19.021Z,60.03
2022-11-12T14:46:47.402Z,61.42
2022-11-12T14:49:19.392Z,60.86
2022-11-12T14:51:49.507Z,60.83
2022-11-12T14:54:21.889Z,60.96
2022-11-12T14:56:49.921Z,61.37
2022-11-12T14:59:17.048Z,61.48
2022-11-12T15:04:52.792Z,62.54
2022-11-12T15:07:24.236Z,62.31
2022-11-12T15:09:50.766Z,62.78
2022-11-12T15:12:22.722Z,62.95
2022-11-12T15:14:49.712Z,63.26
2022-11-12T15:17:35.418Z,63.77
2022-11-12T15:20:03.521Z,63.99
2022-11-12T15:22:30.593Z,63.65
2022-11-12T15:25:10.345Z,63.64
2022-11-12T15:27:40.564Z,62.95
2022-11-12T15:30:20.813Z,63.50
2022-11-12T15:32:47.234Z,65.65
2022-11-12T15:35:31.842Z,64.97
2022-11-12T15:38:01.328Z,65.04
2022-11-12T15:40:28.538Z,65.64
2022-11-12T15:42:57.800Z,66.75
2022-11-12T15:45:24.342Z,65.72
2022-11-12T15:47:50.820Z,65.70
2022-11-12T15:50:18.845Z,65.42
2022-11-12T15:52:45.632Z,65.96
2022-11-12T15:55:12.725Z,66.49
2022-11-12T15:57:42.946Z,66.64
2022-11-12T16:00:15.296Z,66.44
2022-11-12T16:02:42.456Z,66.11
2022-11-12T16:05:12.661Z,66.13
2022-11-12T16:07:39.130Z,66.74
2022-11-12T16:10:06.299Z,66.22
2022-11-12T16:12:35.777Z,66.23
2022-11-12T16:15:02.315Z,66.45
2022-11-12T16:17:31.348Z,67.05
2022-11-12T16:19:57.790Z,67.51
2022-11-12T16:22:24.759Z,66.92
2022-11-12T16:24:51.163Z,67.49
2022-11-12T16:27:17.666Z,67.01
2022-11-12T16:29:44.088Z,66.04
2022-11-12T16:32:13.883Z,66.47
2022-11-12T16:34:41.637Z,66.29
2022-11-12T16:37:10.699Z,66.36
2022-11-12T16:39:37.409Z,67.32
2022-11-12T16:42:04.229Z,66.96
2022-11-12T16:44:30.615Z,66.64
2022-11-12T16:46:57.158Z,66.13
2022-11-12T16:49:23.595Z,68.04
2022-11-12T16:51:51.347Z,68.05
2022-11-12T16:54:17.777Z,67.51
2022-11-12T16:56:44.219Z,68.62
2022-11-12T16:59:11.223Z,68.13
2022-11-12T17:01:37.695Z,68.24
2022-11-12T17:04:04.409Z,66.00
2022-11-12T17:06:35.361Z,68.46
2022-11-12T17:09:03.852Z,68.07
2022-11-12T17:11:30.274Z,66.75
2022-11-12T17:13:56.679Z,66.48
2022-11-12T17:16:23.285Z,65.54
2022-11-12T17:18:53.217Z,66.01
2022-11-12T17:21:19.651Z,67.16
2022-11-12T17:23:46.118Z,66.73
2022-11-12T17:26:16.108Z,65.75
2022-11-12T17:28:42.593Z,65.77
2022-11-12T17:31:11.829Z,65.71
2022-11-12T17:33:39.654Z,66.84
2022-11-12T17:36:08.315Z,65.73
2022-11-12T17:38:34.963Z,66.19
2022-11-12T17:41:01.455Z,65.72
2022-11-12T17:43:29.830Z,65.86
2022-11-12T17:45:56.687Z,65.16
2022-11-12T17:48:24.039Z,65.90
2022-11-12T17:50:51.643Z,66.55
2022-11-12T17:53:18.425Z,65.95
2022-11-12T17:55:44.845Z,65.82
2022-11-12T17:58:11.263Z,65.01
2022-11-12T18:00:39.918Z,65.93
2022-11-12T18:03:06.339Z,66.85
2022-11-12T18:05:32.755Z,66.44
2022-11-12T18:07:59.193Z,65.25
2022-11-12T18:10:25.890Z,65.54
2022-11-12T18:12:52.314Z,65.52
2022-11-12T18:15:19.422Z,64.80
2022-11-12T18:17:47.164Z,65.72
2022-11-12T18:20:13.725Z,65.39
2022-11-12T18:22:44.750Z,64.99
2022-11-12T18:25:11.624Z,66.83
2022-11-12T18:27:38.123Z,66.49
2022-11-12T18:30:05.913Z,66.92
2022-11-12T18:32:32.351Z,66.31
2022-11-12T18:35:00.186Z,65.70
2022-11-12T18:37:26.675Z,65.88
2022-11-12T18:39:53.082Z,66.88
2022-11-12T18:42:19.623Z,67.35
2022-11-12T18:44:46.189Z,67.17
2022-11-12T18:47:12.593Z,65.84
2022-11-12T18:49:38.999Z,65.54
2022-11-12T18:52:06.883Z,67.76
2022-11-12T18:54:33.326Z,68.14
2022-11-12T18:56:59.897Z,68.71
2022-11-12T18:59:26.344Z,68.41
2022-11-12T19:01:52.758Z,66.13
2022-11-12T19:04:19.358Z,66.44
2022-11-12T19:06:45.956Z,66.21
2022-11-12T19:09:13.762Z,67.47
2022-11-12T19:11:40.181Z,67.55
2022-11-12T19:14:06.623Z,65.97
2022-11-12T19:16:33.067Z,66.46
2022-11-12T19:18:59.472Z,66.95
2022-11-12T19:21:26.992Z,65.96
2022-11-12T19:23:54.826Z,65.76
2022-11-12T19:26:23.586Z,65.46
2022-11-12T19:28:50.231Z,67.04
2022-11-12T19:31:18.873Z,68.50
2022-11-12T19:33:45.654Z,68.45
2022-11-12T19:36:13.759Z,66.18
2022-11-12T19:38:40.144Z,66.12
2022-11-12T19:41:07.855Z,66.16
2022-11-12T19:43:35.858Z,66.23
2022-11-12T19:46:02.636Z,67.53
2022-11-12T19:48:29.559Z,66.81
2022-11-12T19:51:00.648Z,68.42
2022-11-12T19:53:30.097Z,70.77
2022-11-12T19:55:59.287Z,68.47
2022-11-12T19:58:26.130Z,66.58
2022-11-12T20:00:54.571Z,68.89
2022-11-12T20:03:21.016Z,68.20
2022-11-12T20:05:47.429Z,70.51
2022-11-12T20:08:13.882Z,69.18
2022-11-12T20:10:40.349Z,67.58
2022-11-12T20:13:06.917Z,66.90
2022-11-12T20:15:33.334Z,68.07
2022-11-12T20:18:01.079Z,69.38
2022-11-12T20:20:27.533Z,66.94
2022-11-12T20:22:53.982Z,69.07
2022-11-12T20:25:20.484Z,70.43
2022-11-12T20:27:46.973Z,69.94
2022-11-12T20:30:13.547Z,67.64
2022-11-12T20:32:39.955Z,65.87
2022-11-12T20:35:15.221Z,67.11
2022-11-12T20:37:45.904Z,68.65
2022-11-12T20:40:12.366Z,66.73
2022-11-12T20:42:38.757Z,67.35
2022-11-12T20:45:06.083Z,67.90
2022-11-12T20:47:32.997Z,69.59
2022-11-12T20:49:59.436Z,68.58
2022-11-12T20:52:27.301Z,67.55
2022-11-12T20:54:53.859Z,67.70
2022-11-12T20:57:20.254Z,68.10
2022-11-12T20:59:50.180Z,66.84
2022-11-12T21:02:18.076Z,66.11
2022-11-12T21:04:44.488Z,66.57
2022-11-12T21:07:10.948Z,66.39
2022-11-12T21:09:38.916Z,70.51
2022-11-12T21:12:05.933Z,70.88
2022-11-12T21:14:32.430Z,70.50
2022-11-12T21:16:58.854Z,71.08
2022-11-12T21:19:25.255Z,70.87
2022-11-12T21:21:52.068Z,71.08
2022-11-12T21:24:18.574Z,70.14
2022-11-12T21:26:48.142Z,71.42
2022-11-12T21:29:18.754Z,72.23
2022-11-12T21:31:45.578Z,71.85
2022-11-12T21:34:12.161Z,69.83
2022-11-12T21:36:38.558Z,70.14
2022-11-12T21:39:05.385Z,70.10
2022-11-12T21:41:31.793Z,71.29
2022-11-12T21:43:59.563Z,71.03
2022-11-12T21:46:28.861Z,68.78
2022-11-12T21:48:56.773Z,67.32
2022-11-12T21:51:24.844Z,68.62
2022-11-12T21:53:54.287Z,68.06
2022-11-12T21:56:20.764Z,68.23
2022-11-12T21:58:47.318Z,67.64
2022-11-12T22:01:16.892Z,69.45
2022-11-12T22:03:44.359Z,70.00
2022-11-12T22:06:11.581Z,70.91
2022-11-12T22:08:38.278Z,68.63
2022-11-12T22:11:06.634Z,70.08
2022-11-12T22:13:33.646Z,71.68
2022-11-12T22:16:04.855Z,70.24
2022-11-12T22:18:32.938Z,69.66
2022-11-12T22:21:01.225Z,70.60
2022-11-12T22:23:28.183Z,70.79
2022-11-12T22:25:56.769Z,69.30
2022-11-12T22:28:23.307Z,71.58
2022-11-12T22:30:49.795Z,71.56
2022-11-12T22:33:16.217Z,71.57
2022-11-12T22:35:44.377Z,71.79
2022-11-12T22:38:11.163Z,71.54
2022-11-12T22:40:37.754Z,72.98
2022-11-12T22:43:04.246Z,73.34
2022-11-12T22:45:30.699Z,72.50
2022-11-12T22:47:58.680Z,72.53
2022-11-12T22:50:25.218Z,72.28
2022-11-12T22:52:54.525Z,70.82
2022-11-12T22:55:20.940Z,68.92
2022-11-12T22:57:47.330Z,68.72
2022-11-12T23:00:15.115Z,68.59
2022-11-12T23:02:46.378Z,68.09
2022-11-12T23:05:14.163Z,67.14
2022-11-12T23:07:40.776Z,67.75
2022-11-12T23:10:09.591Z,68.13
2022-11-12T23:12:36.144Z,68.37
2022-11-12T23:15:02.675Z,68.92
2022-11-12T23:17:29.087Z,68.10
2022-11-12T23:19:55.573Z,66.74
2022-11-12T23:22:22.192Z,67.06
2022-11-12T23:24:48.576Z,66.58
2022-11-12T23:27:16.305Z,66.86
2022-11-12T23:29:42.710Z,66.70
2022-11-12T23:32:09.109Z,66.31
2022-11-12T23:34:35.521Z,66.52
2022-11-12T23:37:01.952Z,65.89
2022-11-12T23:39:28.327Z,65.49
2022-11-12T23:41:54.784Z,66.29
2022-11-12T23:44:22.560Z,65.96
2022-11-12T23:46:48.988Z,65.87
2022-11-12T23:49:15.402Z,66.66
2022-11-12T23:51:41.875Z,66.66
2022-11-12T23:54:09.148Z,66.69
2022-11-12T23:56:35.657Z,67.15
2022-11-12T23:59:02.103Z,66.91
